sensor_id;sensor_type;location;lat;lon;timestamp;P1;durP1;ratioP1;P2;durP2;ratioP2
12980;SDS011;6555;50.468;8.480;2023-04-01T00:02:41;4.60;;;1.20;;
12980;SDS011;6555;50.468;8.480;2023-04-01T00:07:45;2.47;;;1.07;;
12980;SDS011;6555;50.468;8.480;2023-04-01T00:12:50;3.87;;;1.40;;
12980;SDS011;6555;50.468;8.480;2023-04-01T00:17:55;2.60;;;1.20;;
12980;SDS011;6555;50.468;8.480;2023-04-01T00:22:58;1.80;;;0.87;;
12980;SDS011;6555;50.468;8.480;2023-04-01T00:28:04;3.03;;;1.03;;
12980;SDS011;6555;50.468;8.480;2023-04-01T00:33:07;3.13;;;1.10;;
12980;SDS011;6555;50.468;8.480;2023-04-01T00:38:10;2.53;;;1.27;;
12980;SDS011;6555;50.468;8.480;2023-04-01T00:43:17;1.90;;;1.13;;
12980;SDS011;6555;50.468;8.480;2023-04-01T00:48:23;1.77;;;1.00;;
12980;SDS011;6555;50.468;8.480;2023-04-01T00:53:32;1.20;;;0.80;;
12980;SDS011;6555;50.468;8.480;2023-04-01T00:58:38;3.60;;;1.50;;
12980;SDS011;6555;50.468;8.480;2023-04-01T01:03:45;1.90;;;0.90;;
12980;SDS011;6555;50.468;8.480;2023-04-01T01:08:52;2.63;;;1.00;;
12980;SDS011;6555;50.468;8.480;2023-04-01T01:14:12;3.00;;;1.13;;
12980;SDS011;6555;50.468;8.480;2023-04-01T01:19:31;1.83;;;0.80;;
12980;SDS011;6555;50.468;8.480;2023-04-01T01:24:57;4.63;;;0.90;;
12980;SDS011;6555;50.468;8.480;2023-04-01T01:30:18;2.00;;;0.97;;
12980;SDS011;6555;50.468;8.480;2023-04-01T01:35:33;1.47;;;0.83;;
12980;SDS011;6555;50.468;8.480;2023-04-01T01:40:48;2.40;;;0.93;;
12980;SDS011;6555;50.468;8.480;2023-04-01T01:45:58;1.73;;;0.83;;
12980;SDS011;6555;50.468;8.480;2023-04-01T01:51:06;1.00;;;0.60;;
12980;SDS011;6555;50.468;8.480;2023-04-01T01:56:10;1.43;;;0.83;;
12980;SDS011;6555;50.468;8.480;2023-04-01T02:01:19;1.53;;;0.57;;
12980;SDS011;6555;50.468;8.480;2023-04-01T02:06:28;1.60;;;1.00;;
12980;SDS011;6555;50.468;8.480;2023-04-01T02:11:36;1.67;;;0.80;;
12980;SDS011;6555;50.468;8.480;2023-04-01T02:16:59;1.83;;;0.73;;
12980;SDS011;6555;50.468;8.480;2023-04-01T02:23:07;1.80;;;0.93;;
12980;SDS011;6555;50.468;8.480;2023-04-01T02:28:14;1.50;;;0.50;;
12980;SDS011;6555;50.468;8.480;2023-04-01T02:33:22;3.60;;;1.00;;
12980;SDS011;6555;50.468;8.480;2023-04-01T02:38:28;2.00;;;0.83;;
12980;SDS011;6555;50.468;8.480;2023-04-01T02:43:31;1.83;;;1.00;;
12980;SDS011;6555;50.468;8.480;2023-04-01T02:48:35;1.13;;;0.67;;
12980;SDS011;6555;50.468;8.480;2023-04-01T02:53:43;1.83;;;0.90;;
12980;SDS011;6555;50.468;8.480;2023-04-01T02:58:46;1.90;;;0.87;;
12980;SDS011;6555;50.468;8.480;2023-04-01T03:03:53;1.57;;;0.90;;
12980;SDS011;6555;50.468;8.480;2023-04-01T03:08:59;0.77;;;0.60;;
12980;SDS011;6555;50.468;8.480;2023-04-01T03:14:03;2.97;;;1.00;;
12980;SDS011;6555;50.468;8.480;2023-04-01T03:19:06;2.10;;;0.77;;
12980;SDS011;6555;50.468;8.480;2023-04-01T03:24:11;1.53;;;0.90;;
12980;SDS011;6555;50.468;8.480;2023-04-01T03:29:14;2.77;;;0.80;;
12980;SDS011;6555;50.468;8.480;2023-04-01T03:34:18;2.10;;;1.00;;
12980;SDS011;6555;50.468;8.480;2023-04-01T03:39:23;2.47;;;0.80;;
12980;SDS011;6555;50.468;8.480;2023-04-01T03:44:30;2.53;;;0.87;;
12980;SDS011;6555;50.468;8.480;2023-04-01T03:49:34;2.40;;;0.87;;
12980;SDS011;6555;50.468;8.480;2023-04-01T03:54:43;2.30;;;0.77;;
12980;SDS011;6555;50.468;8.480;2023-04-01T04:05:20;1.47;;;0.63;;
12980;SDS011;6555;50.468;8.480;2023-04-01T04:10:39;2.30;;;0.80;;
12980;SDS011;6555;50.468;8.480;2023-04-01T04:16:11;1.33;;;0.80;;
12980;SDS011;6555;50.468;8.480;2023-04-01T04:21:32;2.00;;;1.10;;
12980;SDS011;6555;50.468;8.480;2023-04-01T04:27:04;3.27;;;1.00;;
12980;SDS011;6555;50.468;8.480;2023-04-01T04:32:31;1.80;;;0.87;;
12980;SDS011;6555;50.468;8.480;2023-04-01T04:38:05;2.20;;;0.60;;
12980;SDS011;6555;50.468;8.480;2023-04-01T04:43:23;1.40;;;0.53;;
12980;SDS011;6555;50.468;8.480;2023-04-01T04:48:53;1.37;;;0.63;;
12980;SDS011;6555;50.468;8.480;2023-04-01T04:54:13;1.10;;;0.60;;
12980;SDS011;6555;50.468;8.480;2023-04-01T04:59:45;2.93;;;1.17;;
12980;SDS011;6555;50.468;8.480;2023-04-01T05:05:20;0.43;;;0.30;;
12980;SDS011;6555;50.468;8.480;2023-04-01T05:10:50;1.10;;;0.60;;
12980;SDS011;6555;50.468;8.480;2023-04-01T05:16:09;1.40;;;0.40;;
12980;SDS011;6555;50.468;8.480;2023-04-01T05:21:41;1.17;;;0.40;;
12980;SDS011;6555;50.468;8.480;2023-04-01T05:26:58;0.57;;;0.50;;
12980;SDS011;6555;50.468;8.480;2023-04-01T05:32:30;0.37;;;0.37;;
12980;SDS011;6555;50.468;8.480;2023-04-01T05:37:51;0.40;;;0.40;;
12980;SDS011;6555;50.468;8.480;2023-04-01T05:43:21;0.97;;;0.77;;
12980;SDS011;6555;50.468;8.480;2023-04-01T05:49:02;1.27;;;0.53;;
12980;SDS011;6555;50.468;8.480;2023-04-01T05:54:33;0.50;;;0.50;;
12980;SDS011;6555;50.468;8.480;2023-04-01T05:59:51;1.67;;;0.50;;
12980;SDS011;6555;50.468;8.480;2023-04-01T06:05:27;0.80;;;0.50;;
12980;SDS011;6555;50.468;8.480;2023-04-01T06:10:53;0.23;;;0.23;;
12980;SDS011;6555;50.468;8.480;2023-04-01T06:16:35;0.37;;;0.33;;
12980;SDS011;6555;50.468;8.480;2023-04-01T06:22:06;0.73;;;0.60;;
12980;SDS011;6555;50.468;8.480;2023-04-01T06:27:52;1.07;;;0.53;;
12980;SDS011;6555;50.468;8.480;2023-04-01T06:33:24;1.03;;;0.60;;
12980;SDS011;6555;50.468;8.480;2023-04-01T06:39:15;1.13;;;0.60;;
12980;SDS011;6555;50.468;8.480;2023-04-01T06:44:57;0.97;;;0.60;;
12980;SDS011;6555;50.468;8.480;2023-04-01T06:51:06;0.50;;;0.30;;
12980;SDS011;6555;50.468;8.480;2023-04-01T06:56:53;0.67;;;0.47;;
12980;SDS011;6555;50.468;8.480;2023-04-01T07:02:30;1.70;;;0.40;;
12980;SDS011;6555;50.468;8.480;2023-04-01T07:07:54;0.33;;;0.33;;
12980;SDS011;6555;50.468;8.480;2023-04-01T07:13:33;0.10;;;0.10;;
12980;SDS011;6555;50.468;8.480;2023-04-01T07:19:01;1.03;;;0.90;;
12980;SDS011;6555;50.468;8.480;2023-04-01T07:24:45;0.30;;;0.30;;
12980;SDS011;6555;50.468;8.480;2023-04-01T07:30:06;0.17;;;0.17;;
12980;SDS011;6555;50.468;8.480;2023-04-01T07:35:45;0.67;;;0.57;;
12980;SDS011;6555;50.468;8.480;2023-04-01T07:41:09;0.40;;;0.40;;
12980;SDS011;6555;50.468;8.480;2023-04-01T07:46:55;0.97;;;0.40;;
12980;SDS011;6555;50.468;8.480;2023-04-01T07:52:31;1.80;;;0.43;;
12980;SDS011;6555;50.468;8.480;2023-04-01T07:58:10;1.33;;;0.40;;
12980;SDS011;6555;50.468;8.480;2023-04-01T08:03:38;0.33;;;0.33;;
12980;SDS011;6555;50.468;8.480;2023-04-01T08:09:30;0.20;;;0.20;;
12980;SDS011;6555;50.468;8.480;2023-04-01T08:15:23;1.07;;;0.40;;
12980;SDS011;6555;50.468;8.480;2023-04-01T08:21:11;0.33;;;0.30;;
12980;SDS011;6555;50.468;8.480;2023-04-01T08:26:42;0.30;;;0.30;;
12980;SDS011;6555;50.468;8.480;2023-04-01T08:32:18;0.13;;;0.13;;
12980;SDS011;6555;50.468;8.480;2023-04-01T08:37:41;0.30;;;0.20;;
12980;SDS011;6555;50.468;8.480;2023-04-01T08:43:15;1.90;;;0.37;;
12980;SDS011;6555;50.468;8.480;2023-04-01T08:54:27;0.40;;;0.40;;
12980;SDS011;6555;50.468;8.480;2023-04-01T09:00:32;0.20;;;0.20;;
12980;SDS011;6555;50.468;8.480;2023-04-01T09:06:31;0.63;;;0.40;;
12980;SDS011;6555;50.468;8.480;2023-04-01T09:12:06;0.57;;;0.40;;
12980;SDS011;6555;50.468;8.480;2023-04-01T09:18:24;0.40;;;0.40;;
12980;SDS011;6555;50.468;8.480;2023-04-01T09:24:33;0.30;;;0.30;;
12980;SDS011;6555;50.468;8.480;2023-04-01T09:37:13;0.60;;;0.50;;
12980;SDS011;6555;50.468;8.480;2023-04-01T09:43:04;0.30;;;0.30;;
12980;SDS011;6555;50.468;8.480;2023-04-01T09:55:21;0.30;;;0.30;;
12980;SDS011;6555;50.468;8.480;2023-04-01T10:01:29;1.10;;;0.27;;
12980;SDS011;6555;50.468;8.480;2023-04-01T10:08:26;0.33;;;0.30;;
12980;SDS011;6555;50.468;8.480;2023-04-01T10:41:58;0.67;;;0.53;;
12980;SDS011;6555;50.468;8.480;2023-04-01T10:48:53;0.87;;;0.47;;
12980;SDS011;6555;50.468;8.480;2023-04-01T11:23:24;0.53;;;0.40;;
12980;SDS011;6555;50.468;8.480;2023-04-01T12:02:20;0.67;;;0.67;;
12980;SDS011;6555;50.468;8.480;2023-04-01T12:08:50;0.70;;;0.70;;
12980;SDS011;6555;50.468;8.480;2023-04-01T12:16:13;1.33;;;0.93;;
12980;SDS011;6555;50.468;8.480;2023-04-01T12:22:07;0.73;;;0.73;;
12980;SDS011;6555;50.468;8.480;2023-04-01T12:27:44;0.73;;;0.73;;
12980;SDS011;6555;50.468;8.480;2023-04-01T12:34:10;0.57;;;0.57;;
12980;SDS011;6555;50.468;8.480;2023-04-01T12:47:27;1.00;;;0.80;;
12980;SDS011;6555;50.468;8.480;2023-04-01T13:00:43;0.83;;;0.70;;
12980;SDS011;6555;50.468;8.480;2023-04-01T13:06:49;0.50;;;0.50;;
12980;SDS011;6555;50.468;8.480;2023-04-01T13:25:04;0.60;;;0.60;;
12980;SDS011;6555;50.468;8.480;2023-04-01T13:30:41;0.80;;;0.80;;
12980;SDS011;6555;50.468;8.480;2023-04-01T13:36:14;0.70;;;0.70;;
12980;SDS011;6555;50.468;8.480;2023-04-01T13:54:00;1.00;;;0.90;;
12980;SDS011;6555;50.468;8.480;2023-04-01T14:11:44;0.50;;;0.50;;
12980;SDS011;6555;50.468;8.480;2023-04-01T14:18:02;0.43;;;0.43;;
12980;SDS011;6555;50.468;8.480;2023-04-01T14:24:40;0.53;;;0.53;;
12980;SDS011;6555;50.468;8.480;2023-04-01T14:37:54;0.20;;;0.20;;
12980;SDS011;6555;50.468;8.480;2023-04-01T14:43:54;0.47;;;0.47;;
12980;SDS011;6555;50.468;8.480;2023-04-01T14:50:23;0.70;;;0.67;;
12980;SDS011;6555;50.468;8.480;2023-04-01T14:55:58;0.30;;;0.30;;
12980;SDS011;6555;50.468;8.480;2023-04-01T15:36:53;0.17;;;0.17;;
12980;SDS011;6555;50.468;8.480;2023-04-01T15:42:16;0.30;;;0.30;;
12980;SDS011;6555;50.468;8.480;2023-04-01T15:47:53;0.40;;;0.40;;
12980;SDS011;6555;50.468;8.480;2023-04-01T16:00:24;0.27;;;0.27;;
12980;SDS011;6555;50.468;8.480;2023-04-01T16:06:46;0.20;;;0.20;;
12980;SDS011;6555;50.468;8.480;2023-04-01T16:13:08;0.63;;;0.53;;
12980;SDS011;6555;50.468;8.480;2023-04-01T16:25:45;0.43;;;0.43;;
12980;SDS011;6555;50.468;8.480;2023-04-01T16:31:25;0.70;;;0.40;;
12980;SDS011;6555;50.468;8.480;2023-04-01T16:37:20;0.60;;;0.60;;
12980;SDS011;6555;50.468;8.480;2023-04-01T16:42:46;0.30;;;0.30;;
12980;SDS011;6555;50.468;8.480;2023-04-01T16:48:21;0.33;;;0.33;;
12980;SDS011;6555;50.468;8.480;2023-04-01T16:53:43;1.33;;;0.60;;
12980;SDS011;6555;50.468;8.480;2023-04-01T16:59:19;0.80;;;0.57;;
12980;SDS011;6555;50.468;8.480;2023-04-01T17:04:41;0.47;;;0.43;;
12980;SDS011;6555;50.468;8.480;2023-04-01T17:10:24;0.50;;;0.50;;
12980;SDS011;6555;50.468;8.480;2023-04-01T17:15:55;0.47;;;0.47;;
12980;SDS011;6555;50.468;8.480;2023-04-01T17:21:53;0.33;;;0.33;;
12980;SDS011;6555;50.468;8.480;2023-04-01T17:27:22;0.30;;;0.30;;
12980;SDS011;6555;50.468;8.480;2023-04-01T17:33:08;0.70;;;0.70;;
12980;SDS011;6555;50.468;8.480;2023-04-01T17:39:01;0.80;;;0.80;;
12980;SDS011;6555;50.468;8.480;2023-04-01T17:44:54;0.63;;;0.63;;
12980;SDS011;6555;50.468;8.480;2023-04-01T17:50:20;0.90;;;0.50;;
12980;SDS011;6555;50.468;8.480;2023-04-01T17:55:58;0.60;;;0.60;;
12980;SDS011;6555;50.468;8.480;2023-04-01T18:01:36;0.43;;;0.43;;
12980;SDS011;6555;50.468;8.480;2023-04-01T18:13:01;0.40;;;0.40;;
12980;SDS011;6555;50.468;8.480;2023-04-01T18:18:48;0.77;;;0.70;;
12980;SDS011;6555;50.468;8.480;2023-04-01T18:24:13;0.80;;;0.80;;
12980;SDS011;6555;50.468;8.480;2023-04-01T18:29:48;0.70;;;0.70;;
12980;SDS011;6555;50.468;8.480;2023-04-01T18:35:14;1.20;;;1.10;;
12980;SDS011;6555;50.468;8.480;2023-04-01T18:40:53;0.70;;;0.70;;
12980;SDS011;6555;50.468;8.480;2023-04-01T18:46:16;0.60;;;0.60;;
12980;SDS011;6555;50.468;8.480;2023-04-01T18:51:54;0.63;;;0.63;;
12980;SDS011;6555;50.468;8.480;2023-04-01T18:57:15;0.63;;;0.47;;
12980;SDS011;6555;50.468;8.480;2023-04-01T19:02:49;0.57;;;0.53;;
12980;SDS011;6555;50.468;8.480;2023-04-01T19:08:16;1.73;;;0.60;;
12980;SDS011;6555;50.468;8.480;2023-04-01T19:14:05;0.40;;;0.40;;
12980;SDS011;6555;50.468;8.480;2023-04-01T19:19:34;0.37;;;0.37;;
12980;SDS011;6555;50.468;8.480;2023-04-01T19:25:23;0.40;;;0.40;;
12980;SDS011;6555;50.468;8.480;2023-04-01T19:30:53;0.40;;;0.40;;
12980;SDS011;6555;50.468;8.480;2023-04-01T19:36:27;0.30;;;0.30;;
12980;SDS011;6555;50.468;8.480;2023-04-01T19:41:55;0.40;;;0.40;;
12980;SDS011;6555;50.468;8.480;2023-04-01T19:47:38;0.50;;;0.50;;
12980;SDS011;6555;50.468;8.480;2023-04-01T19:53:18;0.43;;;0.43;;
12980;SDS011;6555;50.468;8.480;2023-04-01T19:58:56;0.30;;;0.30;;
12980;SDS011;6555;50.468;8.480;2023-04-01T20:04:22;0.40;;;0.40;;
12980;SDS011;6555;50.468;8.480;2023-04-01T20:09:58;0.40;;;0.40;;
12980;SDS011;6555;50.468;8.480;2023-04-01T20:15:23;0.43;;;0.43;;
12980;SDS011;6555;50.468;8.480;2023-04-01T20:21:02;0.63;;;0.63;;
12980;SDS011;6555;50.468;8.480;2023-04-01T20:26:23;0.67;;;0.67;;
12980;SDS011;6555;50.468;8.480;2023-04-01T20:31:59;0.73;;;0.67;;
12980;SDS011;6555;50.468;8.480;2023-04-01T20:37:38;0.60;;;0.60;;
12980;SDS011;6555;50.468;8.480;2023-04-01T20:43:06;0.70;;;0.70;;
12980;SDS011;6555;50.468;8.480;2023-04-01T20:49:01;2.73;;;0.70;;
12980;SDS011;6555;50.468;8.480;2023-04-01T20:54:43;0.70;;;0.70;;
12980;SDS011;6555;50.468;8.480;2023-04-01T21:00:31;1.10;;;1.00;;
12980;SDS011;6555;50.468;8.480;2023-04-01T21:12:05;0.60;;;0.60;;
12980;SDS011;6555;50.468;8.480;2023-04-01T21:17:42;0.40;;;0.40;;
12980;SDS011;6555;50.468;8.480;2023-04-01T21:23:37;0.57;;;0.57;;
12980;SDS011;6555;50.468;8.480;2023-04-01T21:48:22;0.50;;;0.50;;
12980;SDS011;6555;50.468;8.480;2023-04-01T22:12:02;1.30;;;0.60;;
12980;SDS011;6555;50.468;8.480;2023-04-01T22:17:40;0.50;;;0.50;;
12980;SDS011;6555;50.468;8.480;2023-04-01T22:23:10;0.40;;;0.40;;
12980;SDS011;6555;50.468;8.480;2023-04-01T22:28:50;0.40;;;0.40;;
12980;SDS011;6555;50.468;8.480;2023-04-01T22:34:13;0.40;;;0.40;;
12980;SDS011;6555;50.468;8.480;2023-04-01T22:39:59;0.30;;;0.30;;
12980;SDS011;6555;50.468;8.480;2023-04-01T22:45:30;0.30;;;0.30;;
12980;SDS011;6555;50.468;8.480;2023-04-01T22:51:15;0.50;;;0.50;;
12980;SDS011;6555;50.468;8.480;2023-04-01T22:57:14;0.30;;;0.30;;
12980;SDS011;6555;50.468;8.480;2023-04-01T23:03:01;0.20;;;0.20;;
12980;SDS011;6555;50.468;8.480;2023-04-01T23:09:21;0.30;;;0.30;;
12980;SDS011;6555;50.468;8.480;2023-04-01T23:15:19;0.60;;;0.50;;
12980;SDS011;6555;50.468;8.480;2023-04-01T23:21:03;0.40;;;0.40;;
12980;SDS011;6555;50.468;8.480;2023-04-01T23:26:22;0.30;;;0.30;;
12980;SDS011;6555;50.468;8.480;2023-04-01T23:31:43;0.53;;;0.53;;
12980;SDS011;6555;50.468;8.480;2023-04-01T23:36:48;0.47;;;0.47;;
12980;SDS011;6555;50.468;8.480;2023-04-01T23:42:00;0.30;;;0.30;;
12980;SDS011;6555;50.468;8.480;2023-04-01T23:47:15;0.40;;;0.40;;
12980;SDS011;6555;50.468;8.480;2023-04-01T23:52:29;0.30;;;0.30;;
12980;SDS011;6555;50.468;8.480;2023-04-01T23:58:11;0.57;;;0.57;;
